Forside
METAR-TAF:

METAR-TAF

Lufthavne :

Delta County Airport

Escanaba, Michigan, USA

Breddekreds: 45-45N, længdekreds: 087-02W, højde: 180 m

Aktuelle vejr

Denne rapport blev lavet for 23 minutter siden, kl. 14:56 UTC
Vind 11 kt fra vest med vindstød på up til 18 kt
Temperatur 22°C
Fugtighed 88%
Tryk 1014 hPa
Sigt: 16.1 km
Nogle få skyer i en højde af 4700 ft
Overskyet i en højde af 8000 ft
regn

METAR: KESC 091456Z AUTO 28011G18KT 10SM RA FEW047 OVC080 22/20 A2993 RMK AO2 RAB49 SLP136 P0000 60000 T02220200 53027

Tid: 11:19 (15:19 UTC)


TAF: fraværende

Vejrobservationer og prognoser fra mere end 4000 lufthavne (METAR og TAF).

De gule og røde prikker repræsenterer de meteorologiske stationer.

Flyt musen over at se navnet på stationen.

Så klik over at se vejr observationer og prognoser.

At skifte det kort: Klik på de grønne knapper med et sort kors for at zoome ind; på den grønne knap med en bindestreg for at zoome ud; eller på de grønne pile for tilstødende kort.


METAR-TAF: